Latest Coastal Weather Observations for Port Macquarie Airport

IDN60701

Issued at 8:21 am EST Tuesday 27 June 2017 (issued every 10 minutes, with the page automatically refreshed every 10 minutes)

About coastal observations | Map of coastal stations | Coastal observations for NSW | Marine services | Other Formats
Station Details ID: 060139 Name: PORT MACQUARIE AIRPORT AWS Lat: -31.43 Lon: 152.87 Height: 4.2 m
Data from the previous 72 hours. | See also: Recent months at Port Macquarie Airport
Date/Time
EST
Temp
°C
Wind Pressure Rain since
9am
mm
Weather Cloud Vis
km
Sea
Height
m
Swell
Dir  Spd
kts
Gust
kts
hPa Trend Height
m
Period
s
Dir
27/08:00am 11.0 W 4 6 1025.9 - 0.0 - - 10 - - - -
27/07:30am 10.0 W 4 6 1025.6 - 0.0 - - 10 - - - -
27/07:00am 9.5 W 5 7 1025.2 - 0.0 - - 10 - - - -
27/06:30am 9.4 W 3 5 1025.2 - 0.0 - - 10 - - - -
27/06:00am 9.7 W 5 7 1025.2 - 0.0 - - 10 - - - -
27/05:30am 9.9 W 5 7 1024.9 - 0.0 - - 10 - - - -
27/05:00am 10.0 W 5 7 1024.9 - 0.0 - - 10 - - - -
27/04:30am 10.2 W 6 9 1025.0 - 0.0 - - 10 - - - -
27/04:00am 10.0 W 4 6 1024.8 - 0.0 - - 10 - - - -
27/03:30am 10.5 W 5 8 1024.6 - 0.0 - - 10 - - - -
27/03:00am 10.7 WNW 7 9 1024.7 - 0.0 - Mostly clear 10 - - - -
27/02:30am 10.3 WNW 6 8 1024.9 - 0.0 - Partly cloudy 10 - - - -
27/02:00am 10.1 W 4 5 1024.6 - 0.0 - Partly cloudy 10 - - - -
27/01:30am 9.8 W 3 5 1024.7 - 0.0 - - 10 - - - -
27/01:00am 9.9 W 2 5 1024.6 - 0.0 - - 10 - - - -
27/12:30am 10.6 SW 6 8 1024.5 - 0.0 - - 10 - - - -
27/12:00am 11.1 W 7 9 1024.8 - 0.0 - Mostly clear 10 - - - -
 
Date/Time
EST
Temp
°C
Wind Pressure Rain since
9am
mm
Weather Cloud Vis
km
Sea
Height
m
Swell
Dir  Spd
kts
Gust
kts
hPa Trend Height
m
Period
s
Dir
26/11:30pm 9.3 WSW 2 4 1025.0 - 0.0 - Partly cloudy 10 - - - -
26/11:00pm 9.0 W 4 5 1025.1 - 0.0 - Cloudy 10 - - - -
26/10:30pm 8.4 CALM 0 0 1025.0 - 0.0 - Partly cloudy 10 - - - -
26/10:00pm 8.2 CALM 0 0 1024.9 - 0.0 - Cloudy 10 - - - -
26/09:30pm 8.5 WNW 1 4 1024.8 - 0.0 - Partly cloudy 10 - - - -
26/09:00pm 7.9 CALM 0 4 1024.3 - 0.0 - - 10 - - - -
26/08:30pm 8.3 W 1 4 1024.3 - 0.0 - - 10 - - - -
26/08:00pm 9.1 SW 2 3 1024.1 - 0.0 - Partly cloudy 10 - - - -
26/07:30pm 8.4 SW 4 5 1024.0 - 0.0 - Partly cloudy 10 - - - -
26/07:00pm 9.6 CALM 0 0 1023.6 - 0.0 - - 10 - - - -
26/06:30pm 10.5 CALM 0 0 1023.0 - 0.0 - - 10 - - - -
26/06:00pm 11.2 SW 5 5 1022.5 - 0.0 - - 10 - - - -
26/05:30pm 12.9 SSW 3 4 1021.9 - 0.0 - - 10 - - - -
26/05:00pm 14.4 S 6 8 1021.6 - 0.0 - - 10 - - - -
26/04:30pm 16.1 S 6 7 1021.4 - 0.0 - - 10 - - - -
26/04:00pm 17.1 S 8 13 1021.2 - 0.0 - - 10 - - - -
26/03:30pm 17.7 S 9 12 1021.0 - 0.0 - - 10 - - - -
26/03:00pm 18.1 SSE 9 13 1020.8 - 0.0 - - 10 - - - -
26/02:30pm 18.9 S 8 12 1020.5 - 0.0 - - 10 - - - -
26/02:00pm 19.5 S 7 11 1020.3 - 0.0 - - 10 - - - -
26/01:30pm 18.8 S 9 11 1020.4 - 0.0 - - 10 - - - -
26/01:00pm 18.8 S 7 10 1020.5 - 0.0 - - 10 - - - -
26/12:30pm 18.7 SSW 8 12 1020.8 - 0.0 - - 10 - - - -
26/12:00pm 18.7 SW 9 13 1021.0 - 0.0 - - 10 - - - -
26/11:30am 18.4 SW 9 13 1021.4 - 0.0 - - 10 - - - -
26/11:00am 18.5 SW 10 14 1021.9 - 0.0 - - 10 - - - -
26/10:30am 18.2 SW 10 13 1022.1 - 0.0 - - 10 - - - -
26/10:00am 17.5 SSW 7 11 1022.2 - 0.0 - - 10 - - - -
26/09:30am 15.1 WSW 4 6 1022.2 - 0.0 - Partly cloudy 10 - - - -
26/09:00am 13.2 WSW 4 6 1022.0 - 0.0 - Mostly clear 10 - - - -
26/08:30am 12.2 W 4 7 1021.6 - 0.0 - Partly cloudy 10 - - - -
26/08:00am 11.4 W 5 7 1021.2 - 0.0 - Partly cloudy 10 - - - -
26/07:30am 10.0 WSW 4 6 1020.8 - 0.0 - Partly cloudy 10 - - - -
26/07:00am 9.3 W 5 8 1020.3 - 0.0 - - 10 - - - -
26/06:30am 7.6 W 4 6 1020.2 - 0.0 - Partly cloudy 10 - - - -
26/06:00am 7.8 W 1 4 1019.7 - 0.0 - Mostly cloudy 10 - - - -
26/05:30am 6.7 WSW 2 4 1019.3 - 0.0 - Partly cloudy 10 - - - -
26/05:00am 6.6 CALM 0 3 1019.0 - 0.0 - - 10 - - - -
26/04:30am 6.9 CALM 0 3 1018.9 - 0.0 - - 10 - - - -
26/04:00am 7.7 CALM 0 0 1019.1 - 0.0 - Partly cloudy 10 - - - -
26/03:30am 7.3 CALM 0 0 1018.7 - 0.0 - Partly cloudy 10 - - - -
26/03:00am 8.0 CALM 0 0 1018.8 - 0.0 - - 10 - - - -
26/02:30am 8.7 CALM 0 0 1018.9 - 0.0 - - 10 - - - -
26/02:00am 8.3 W 2 4 1018.9 - 0.0 - - 10 - - - -
26/01:30am 8.1 CALM 0 0 1018.8 - 0.0 - - 10 - - - -
26/01:00am 8.9 NNW 2 3 1018.7 - 0.0 - - 10 - - - -
26/12:31am 8.7 N 2 4 1018.5 - 0.0 - - 10 - - - -
26/12:30am 8.5 N 2 4 1018.6 - 0.0 - - 10 - - - -
26/12:19am 8.5 NNW 4 4 1018.6 - 0.0 - - 5 - - - -
26/12:00am 8.9 CALM 0 0 1018.8 - 0.0 - - 10 - - - -
 
Date/Time
EST
Temp
°C
Wind Pressure Rain since
9am
mm
Weather Cloud Vis
km
Sea
Height
m
Swell
Dir  Spd
kts
Gust
kts
hPa Trend Height
m
Period
s
Dir
25/11:30pm 9.2 WNW 1 4 1019.0 - 0.0 - - 10 - - - -
25/11:00pm 9.3 NW 4 5 1019.1 - 0.0 - - 10 - - - -
25/10:30pm 9.5 WNW 2 5 1019.1 - 0.0 - - 10 - - - -
25/10:00pm 9.0 CALM 0 0 1018.9 - 0.0 - - 10 - - - -
25/09:30pm 9.3 WNW 5 6 1018.7 - 0.0 - - 10 - - - -
25/09:00pm 9.3 NW 5 7 1018.4 - 0.0 - - 10 - - - -
25/08:30pm 8.6 W 2 3 1018.6 - 0.0 - - 10 - - - -
25/08:00pm 10.2 CALM 0 0 1018.5 - 0.0 - Partly cloudy 10 - - - -
25/07:30pm 9.8 SW 3 4 1018.5 - 0.0 - - 10 - - - -
25/07:00pm 10.1 NW 3 4 1018.0 - 0.0 - - 10 - - - -
25/06:30pm 10.4 NW 3 4 1017.7 - 0.0 - - 10 - - - -
25/06:00pm 11.2 SSW 2 3 1017.5 - 0.0 - - 10 - - - -
25/05:30pm 11.8 WSW 3 5 1017.2 - 0.0 - - 10 - - - -
25/05:00pm 14.3 NE 1 3 1016.6 - 0.0 - - 10 - - - -
25/04:30pm 17.3 ENE 5 6 1016.3 - 0.0 - - 10 - - - -
25/04:00pm 18.2 ENE 6 8 1016.4 - 0.0 - - 10 - - - -
25/03:30pm 18.4 ENE 7 9 1016.4 - 0.0 - - 10 - - - -
25/03:00pm 18.7 ENE 8 9 1016.3 - 0.0 - - 10 - - - -
25/02:30pm 19.1 ENE 7 8 1016.2 - 0.0 - - 10 - - - -
25/02:00pm 19.2 ENE 7 8 1016.4 - 0.0 - - 10 - - - -
25/01:30pm 19.5 ENE 6 7 1016.6 - 0.0 - - 10 - - - -
25/01:00pm 19.6 E 5 8 1017.1 - 0.0 - - 10 - - - -
25/12:30pm 18.9 NE 4 6 1017.4 - 0.0 - - 10 - - - -
25/12:00pm 18.7 NNE 4 6 1017.9 - 0.0 - - 10 - - - -
25/11:30am 18.0 N 3 4 1018.3 - 0.0 - - 10 - - - -
25/11:00am 15.9 NNW 4 6 1018.9 - 0.0 - - 10 - - - -
25/10:30am 14.1 NW 4 6 1019.5 - 0.0 - - 10 - - - -
25/10:00am 13.5 NW 2 5 1019.7 - 0.0 - Partly cloudy 10 - - - -
25/09:30am 13.5 W 2 5 1019.9 - 0.0 - Partly cloudy 10 - - - -
25/09:00am 12.6 WNW 4 6 1019.8 - 0.0 - Cloudy 10 - - - -
25/08:30am 11.9 W 3 4 1019.7 - 0.0 - Partly cloudy 10 - - - -
25/08:00am 11.2 W 4 5 1019.3 - 0.0 - Partly cloudy 10 - - - -
25/07:30am 10.9 NW 1 4 1018.9 - 0.0 - Partly cloudy 10 - - - -
25/07:00am 11.1 CALM 0 0 1018.6 - 0.0 - Partly cloudy 10 - - - -
25/06:30am 10.7 WNW 3 5 1018.4 - 0.0 - Partly cloudy 10 - - - -
25/06:00am 10.7 SW 4 6 1018.1 - 0.0 - Cloudy 10 - - - -
25/05:30am 10.7 W 3 6 1017.9 - 0.0 - Partly cloudy 10 - - - -
25/05:00am 10.5 W 4 6 1017.6 - 0.0 - - 10 - - - -
25/04:30am 9.8 WNW 3 4 1017.5 - 0.0 - - 10 - - - -
25/04:00am 10.2 W 1 4 1017.4 - 0.0 - - 10 - - - -
25/03:30am 10.3 W 2 4 1017.4 - 0.0 - - 10 - - - -
25/03:00am 10.5 W 4 6 1017.4 - 0.0 - Cloudy 10 - - - -
25/02:30am 10.3 W 5 9 1017.7 - 0.0 - - 10 - - - -
25/02:00am 9.4 WNW 2 5 1017.4 - 0.0 - - 10 - - - -
25/01:30am 9.3 NW 3 4 1017.6 - 0.0 - - 10 - - - -
25/01:00am 9.4 NW 1 3 1017.6 - 0.0 - - 10 - - - -
25/12:30am 10.4 WNW 7 11 1017.8 - 0.0 - - 10 - - - -
25/12:00am 9.8 WNW 7 9 1018.1 - 0.0 - - 10 - - - -
 
Date/Time
EST
Temp
°C
Wind Pressure Rain since
9am
mm
Weather Cloud Vis
km
Sea
Height
m
Swell
Dir  Spd
kts
Gust
kts
hPa Trend Height
m
Period
s
Dir
24/11:30pm 7.3 NW 4 5 1017.9 - 0.0 - - 10 - - - -
24/11:00pm 7.7 CALM 0 0 1017.9 - 0.0 - - 10 - - - -
24/10:46pm 7.3 CALM 0 0 1018.0 - 0.0 - - 10 - - - -
24/10:34pm 6.8 CALM 0 0 1018.2 - 0.0 - - 5 - - - -
24/10:30pm 7.1 CALM 0 0 1018.2 - 0.0 - - 7 - - - -
24/10:00pm 7.2 CALM 0 0 1018.3 - 0.0 - - 10 - - - -
24/09:30pm 8.1 CALM 0 0 1018.0 - 0.0 - - 10 - - - -
24/09:00pm 8.3 CALM 0 0 1017.7 - 0.0 - - 10 - - - -
24/08:30pm 8.6 CALM 0 0 1017.7 - 0.0 - - 10 - - - -
24/08:00pm 8.9 CALM 0 0 1017.8 - 0.0 - - 10 - - - -
24/07:30pm 9.8 S 1 3 1017.6 - 0.0 - - 10 - - - -
24/07:00pm 10.9 WNW 4 5 1017.5 - 0.0 - - 10 - - - -
24/06:30pm 11.0 CALM 0 0 1017.0 - 0.0 - - 10 - - - -
24/06:00pm 11.8 W 2 4 1016.7 - 0.0 - - 10 - - - -
24/05:30pm 13.1 CALM 0 0 1016.4 - 0.0 - - 10 - - - -
24/05:00pm 15.1 CALM 0 0 1016.1 - 0.0 - - 10 - - - -
24/04:30pm 18.3 S 4 6 1015.8 - 0.0 - - 10 - - - -
24/04:00pm 19.1 SSW 5 7 1015.7 - 0.0 - - 10 - - - -
24/03:30pm 19.7 S 6 8 1015.5 - 0.0 - - 10 - - - -
24/03:00pm 19.9 S 5 7 1015.4 - 0.0 - - 10 - - - -
24/02:30pm 19.7 SSW 6 8 1015.5 - 0.0 - - 10 - - - -
24/02:00pm 20.3 S 7 9 1015.4 - 0.0 - - 10 - - - -
24/01:30pm 19.8 SW 7 9 1015.5 - 0.0 - - 10 - - - -
24/01:00pm 19.6 WSW 5 7 1015.6 - 0.0 - - 10 - - - -
24/12:30pm 19.3 W 6 8 1016.1 - 0.0 - - 10 - - - -
24/12:00pm 19.1 WNW 5 8 1016.3 - 0.0 - - 10 - - - -
24/11:30am 18.7 W 7 8 1016.7 - 0.0 - - 10 - - - -
24/11:00am 18.1 W 9 13 1017.1 - 0.0 - - 10 - - - -
24/10:30am 17.8 W 8 11 1017.5 - 0.0 - - 10 - - - -
24/10:00am 16.7 WNW 7 11 1017.9 - 0.0 - - 10 - - - -
24/09:30am 14.6 WNW 6 8 1017.8 - 0.0 - - 10 - - - -
24/09:00am 11.2 NW 5 6 1017.9 - 0.0 - Mostly clear 10 - - - -
24/08:30am 10.9 WNW 4 5 1017.5 - 0.0 - - 10 - - - -

Other Formats:

Comma delimited format used in spreadsheet applications
http://www.bom.gov.au/fwo/IDN60701/IDN60701.94786.axf

JavaScript Object Notation format (JSON) in row-major order
http://www.bom.gov.au/fwo/IDN60701/IDN60701.94786.json